sensor_id;sensor_type;location;lat;lon;timestamp;pressure;altitude;pressure_sealevel;temperature;humidity
36502;BME280;25393;46.108;3.390;2022-09-19T00:01:29;98327.66;;;9.68;73.81
36502;BME280;25393;46.108;3.390;2022-09-19T00:03:59;98312.09;;;9.65;73.95
36502;BME280;25393;46.108;3.390;2022-09-19T00:06:32;98322.25;;;9.69;73.32
36502;BME280;25393;46.108;3.390;2022-09-19T00:08:59;98303.19;;;9.40;72.80
36502;BME280;25393;46.108;3.390;2022-09-19T00:11:26;98303.53;;;9.19;72.43
36502;BME280;25393;46.108;3.390;2022-09-19T00:13:54;98310.72;;;9.09;72.58
36502;BME280;25393;46.108;3.390;2022-09-19T00:16:29;98312.50;;;9.00;73.18
36502;BME280;25393;46.108;3.390;2022-09-19T00:18:57;98300.78;;;8.85;73.71
36502;BME280;25393;46.108;3.390;2022-09-19T00:21:27;98316.94;;;9.00;73.84
36502;BME280;25393;46.108;3.390;2022-09-19T00:23:54;98311.03;;;8.88;73.86
36502;BME280;25393;46.108;3.390;2022-09-19T00:26:40;98316.25;;;8.98;74.36
36502;BME280;25393;46.108;3.390;2022-09-19T00:29:08;98313.28;;;9.01;74.23
36502;BME280;25393;46.108;3.390;2022-09-19T00:31:35;98307.66;;;8.96;75.40
36502;BME280;25393;46.108;3.390;2022-09-19T00:34:02;98281.56;;;8.83;75.56
36502;BME280;25393;46.108;3.390;2022-09-19T00:36:34;98308.25;;;9.08;75.71
36502;BME280;25393;46.108;3.390;2022-09-19T00:39:01;98306.13;;;9.11;74.64
36502;BME280;25393;46.108;3.390;2022-09-19T00:41:28;98292.84;;;9.03;74.96
36502;BME280;25393;46.108;3.390;2022-09-19T00:43:57;98298.47;;;9.08;75.05
36502;BME280;25393;46.108;3.390;2022-09-19T00:46:30;98297.50;;;9.09;75.00
36502;BME280;25393;46.108;3.390;2022-09-19T00:49:09;98295.38;;;9.13;74.73
36502;BME280;25393;46.108;3.390;2022-09-19T00:51:44;98305.59;;;9.08;73.95
36502;BME280;25393;46.108;3.390;2022-09-19T00:54:21;98286.50;;;8.96;74.38
36502;BME280;25393;46.108;3.390;2022-09-19T00:56:51;98295.69;;;9.10;74.84
36502;BME280;25393;46.108;3.390;2022-09-19T00:59:21;98294.09;;;9.17;74.73
36502;BME280;25393;46.108;3.390;2022-09-19T01:01:52;98282.13;;;9.30;75.02
36502;BME280;25393;46.108;3.390;2022-09-19T01:04:22;98293.69;;;9.55;74.17
36502;BME280;25393;46.108;3.390;2022-09-19T01:09:26;98268.47;;;9.17;74.08
36502;BME280;25393;46.108;3.390;2022-09-19T01:12:00;98295.81;;;9.26;74.25
36502;BME280;25393;46.108;3.390;2022-09-19T01:17:51;98291.03;;;8.86;74.39
36502;BME280;25393;46.108;3.390;2022-09-19T01:23:29;98284.00;;;8.77;74.42
36502;BME280;25393;46.108;3.390;2022-09-19T01:29:00;98290.44;;;8.74;76.61
36502;BME280;25393;46.108;3.390;2022-09-19T01:31:31;98276.38;;;8.56;76.53
36502;BME280;25393;46.108;3.390;2022-09-19T01:39:34;98294.34;;;8.52;75.11
36502;BME280;25393;46.108;3.390;2022-09-19T01:42:03;98286.31;;;8.44;75.79
36502;BME280;25393;46.108;3.390;2022-09-19T01:44:30;98286.84;;;8.48;76.17
36502;BME280;25393;46.108;3.390;2022-09-19T01:50:01;98274.91;;;8.26;76.16
36502;BME280;25393;46.108;3.390;2022-09-19T01:52:55;98306.38;;;8.37;76.57
36502;BME280;25393;46.108;3.390;2022-09-19T01:55:45;98290.25;;;8.13;78.85
36502;BME280;25393;46.108;3.390;2022-09-19T02:03:55;98319.91;;;8.34;83.85
36502;BME280;25393;46.108;3.390;2022-09-19T02:10:05;98315.63;;;8.33;85.93
36502;BME280;25393;46.108;3.390;2022-09-19T02:12:05;98316.72;;;8.31;86.59
36502;BME280;25393;46.108;3.390;2022-09-19T02:14:34;98289.63;;;8.29;86.33
36502;BME280;25393;46.108;3.390;2022-09-19T02:17:10;98307.75;;;8.41;86.65
36502;BME280;25393;46.108;3.390;2022-09-19T02:19:55;98324.75;;;8.39;87.01
36502;BME280;25393;46.108;3.390;2022-09-19T02:22:35;98329.09;;;8.30;86.56
36502;BME280;25393;46.108;3.390;2022-09-19T02:25:08;98308.66;;;8.32;87.19
36502;BME280;25393;46.108;3.390;2022-09-19T02:27:43;98312.13;;;8.33;87.46
36502;BME280;25393;46.108;3.390;2022-09-19T02:30:12;98301.31;;;8.26;87.10
36502;BME280;25393;46.108;3.390;2022-09-19T02:32:39;98293.81;;;8.22;85.73
36502;BME280;25393;46.108;3.390;2022-09-19T02:35:15;98310.75;;;8.29;84.75
36502;BME280;25393;46.108;3.390;2022-09-19T02:37:47;98304.88;;;8.35;83.84
36502;BME280;25393;46.108;3.390;2022-09-19T02:43:00;98311.22;;;8.15;80.32
36502;BME280;25393;46.108;3.390;2022-09-19T02:45:44;98292.16;;;7.93;81.35
36502;BME280;25393;46.108;3.390;2022-09-19T02:48:28;98299.53;;;7.90;83.37
36502;BME280;25393;46.108;3.390;2022-09-19T02:53:33;98299.47;;;7.99;81.41
36502;BME280;25393;46.108;3.390;2022-09-19T02:56:10;98302.31;;;7.88;83.57
36502;BME280;25393;46.108;3.390;2022-09-19T02:59:03;98302.31;;;7.88;85.20
36502;BME280;25393;46.108;3.390;2022-09-19T03:01:34;98291.97;;;7.77;86.15
36502;BME280;25393;46.108;3.390;2022-09-19T03:04:07;98285.69;;;7.78;85.51
36502;BME280;25393;46.108;3.390;2022-09-19T03:09:13;98284.84;;;7.78;85.15
36502;BME280;25393;46.108;3.390;2022-09-19T03:11:44;98311.53;;;7.84;85.14
36502;BME280;25393;46.108;3.390;2022-09-19T03:14:17;98286.94;;;7.74;83.81
36502;BME280;25393;46.108;3.390;2022-09-19T03:16:46;98316.03;;;7.92;82.66
36502;BME280;25393;46.108;3.390;2022-09-19T03:19:14;98323.88;;;7.84;81.98
36502;BME280;25393;46.108;3.390;2022-09-19T03:21:41;98322.25;;;7.73;82.84
36502;BME280;25393;46.108;3.390;2022-09-19T03:24:08;98308.69;;;7.59;84.67
36502;BME280;25393;46.108;3.390;2022-09-19T03:26:36;98313.91;;;7.68;84.36
36502;BME280;25393;46.108;3.390;2022-09-19T03:29:06;98310.44;;;7.68;84.63
36502;BME280;25393;46.108;3.390;2022-09-19T03:31:33;98316.25;;;7.71;84.11
36502;BME280;25393;46.108;3.390;2022-09-19T03:33:59;98307.81;;;7.68;82.92
36502;BME280;25393;46.108;3.390;2022-09-19T03:36:26;98315.06;;;7.66;83.25
36502;BME280;25393;46.108;3.390;2022-09-19T03:38:55;98285.03;;;7.30;82.96
36502;BME280;25393;46.108;3.390;2022-09-19T03:41:29;98309.97;;;7.45;82.96
36502;BME280;25393;46.108;3.390;2022-09-19T03:43:57;98292.78;;;7.41;82.60
36502;BME280;25393;46.108;3.390;2022-09-19T03:46:29;98297.50;;;7.37;84.27
36502;BME280;25393;46.108;3.390;2022-09-19T03:49:00;98302.44;;;7.60;84.67
36502;BME280;25393;46.108;3.390;2022-09-19T03:51:27;98303.78;;;7.64;83.36
36502;BME280;25393;46.108;3.390;2022-09-19T03:53:56;98268.78;;;7.34;84.40
36502;BME280;25393;46.108;3.390;2022-09-19T03:56:23;98293.69;;;7.49;84.44
36502;BME280;25393;46.108;3.390;2022-09-19T03:58:49;98300.94;;;7.47;85.85
36502;BME280;25393;46.108;3.390;2022-09-19T04:01:16;98278.75;;;7.40;84.81
36502;BME280;25393;46.108;3.390;2022-09-19T04:03:47;98279.41;;;7.42;84.00
36502;BME280;25393;46.108;3.390;2022-09-19T04:06:15;98279.84;;;7.47;83.69
36502;BME280;25393;46.108;3.390;2022-09-19T04:08:42;98286.75;;;7.58;83.06
36502;BME280;25393;46.108;3.390;2022-09-19T04:11:09;98278.88;;;7.48;82.80
36502;BME280;25393;46.108;3.390;2022-09-19T04:13:36;98296.88;;;7.53;83.01
36502;BME280;25393;46.108;3.390;2022-09-19T04:16:03;98287.19;;;7.44;83.57
36502;BME280;25393;46.108;3.390;2022-09-19T04:18:30;98292.06;;;7.39;82.80
36502;BME280;25393;46.108;3.390;2022-09-19T04:20:57;98275.63;;;7.08;82.98
36502;BME280;25393;46.108;3.390;2022-09-19T04:23:24;98293.38;;;7.16;82.90
36502;BME280;25393;46.108;3.390;2022-09-19T04:25:51;98297.25;;;7.12;81.91
36502;BME280;25393;46.108;3.390;2022-09-19T04:28:18;98275.06;;;7.04;82.57
36502;BME280;25393;46.108;3.390;2022-09-19T04:30:45;98291.56;;;7.16;82.92
36502;BME280;25393;46.108;3.390;2022-09-19T04:33:13;98305.56;;;7.26;82.11
36502;BME280;25393;46.108;3.390;2022-09-19T04:35:41;98306.84;;;7.03;83.06
36502;BME280;25393;46.108;3.390;2022-09-19T04:38:11;98300.47;;;6.96;84.57
36502;BME280;25393;46.108;3.390;2022-09-19T04:40:40;98306.03;;;7.02;85.35
36502;BME280;25393;46.108;3.390;2022-09-19T04:43:09;98311.69;;;7.08;85.30
36502;BME280;25393;46.108;3.390;2022-09-19T04:45:37;98315.28;;;7.26;85.92
36502;BME280;25393;46.108;3.390;2022-09-19T04:48:04;98310.44;;;7.21;85.32
36502;BME280;25393;46.108;3.390;2022-09-19T04:50:35;98311.25;;;7.22;85.76
36502;BME280;25393;46.108;3.390;2022-09-19T04:53:02;98292.28;;;7.09;85.67
36502;BME280;25393;46.108;3.390;2022-09-19T04:55:30;98308.63;;;7.22;84.65
36502;BME280;25393;46.108;3.390;2022-09-19T04:58:02;98316.53;;;7.22;85.60
36502;BME280;25393;46.108;3.390;2022-09-19T05:00:40;98320.97;;;7.12;86.63
36502;BME280;25393;46.108;3.390;2022-09-19T05:03:16;98306.56;;;7.06;87.83
36502;BME280;25393;46.108;3.390;2022-09-19T05:05:47;98315.16;;;7.27;86.61
36502;BME280;25393;46.108;3.390;2022-09-19T05:08:27;98305.31;;;7.10;86.60
36502;BME280;25393;46.108;3.390;2022-09-19T05:10:59;98294.38;;;6.95;86.47
36502;BME280;25393;46.108;3.390;2022-09-19T05:13:32;98319.06;;;7.14;86.27
36502;BME280;25393;46.108;3.390;2022-09-19T05:16:00;98297.00;;;7.05;87.85
36502;BME280;25393;46.108;3.390;2022-09-19T05:18:29;98317.94;;;7.16;87.57
36502;BME280;25393;46.108;3.390;2022-09-19T05:21:02;98325.44;;;7.21;87.57
36502;BME280;25393;46.108;3.390;2022-09-19T05:23:29;98320.28;;;7.19;86.44
36502;BME280;25393;46.108;3.390;2022-09-19T05:26:15;98326.53;;;7.18;86.59
36502;BME280;25393;46.108;3.390;2022-09-19T05:28:43;98316.53;;;7.22;86.14
36502;BME280;25393;46.108;3.390;2022-09-19T05:31:12;98325.28;;;7.22;86.34
36502;BME280;25393;46.108;3.390;2022-09-19T05:33:39;98309.06;;;6.98;86.01
36502;BME280;25393;46.108;3.390;2022-09-19T05:36:07;98312.41;;;7.00;86.20
36502;BME280;25393;46.108;3.390;2022-09-19T05:38:35;98335.84;;;7.13;86.15
36502;BME280;25393;46.108;3.390;2022-09-19T05:41:03;98315.47;;;6.95;85.39
36502;BME280;25393;46.108;3.390;2022-09-19T05:43:32;98308.78;;;6.91;85.65
36502;BME280;25393;46.108;3.390;2022-09-19T05:46:10;98328.22;;;7.00;85.85
36502;BME280;25393;46.108;3.390;2022-09-19T05:48:41;98337.09;;;7.09;85.41
36502;BME280;25393;46.108;3.390;2022-09-19T05:51:08;98343.72;;;7.22;85.38
36502;BME280;25393;46.108;3.390;2022-09-19T05:53:35;98316.41;;;7.04;85.84
36502;BME280;25393;46.108;3.390;2022-09-19T05:56:24;98313.66;;;6.96;82.69
36502;BME280;25393;46.108;3.390;2022-09-19T05:58:52;98355.97;;;7.14;82.41
36502;BME280;25393;46.108;3.390;2022-09-19T06:01:20;98355.25;;;7.21;81.67
36502;BME280;25393;46.108;3.390;2022-09-19T06:03:47;98328.75;;;6.94;83.04
36502;BME280;25393;46.108;3.390;2022-09-19T06:06:16;98359.28;;;7.06;83.47
36502;BME280;25393;46.108;3.390;2022-09-19T06:08:47;98358.03;;;7.00;84.51
36502;BME280;25393;46.108;3.390;2022-09-19T06:11:14;98352.91;;;6.99;85.54
36502;BME280;25393;46.108;3.390;2022-09-19T06:13:40;98350.13;;;7.00;85.79
36502;BME280;25393;46.108;3.390;2022-09-19T06:16:26;98348.75;;;7.06;86.73
36502;BME280;25393;46.108;3.390;2022-09-19T06:18:53;98374.00;;;7.28;87.18
36502;BME280;25393;46.108;3.390;2022-09-19T06:21:19;98357.47;;;7.26;87.88
36502;BME280;25393;46.108;3.390;2022-09-19T06:23:46;98352.06;;;7.27;88.27
36502;BME280;25393;46.108;3.390;2022-09-19T06:26:13;98379.50;;;7.53;89.10
36502;BME280;25393;46.108;3.390;2022-09-19T06:28:40;98359.09;;;7.46;90.04
36502;BME280;25393;46.108;3.390;2022-09-19T06:31:08;98340.38;;;7.39;90.59
36502;BME280;25393;46.108;3.390;2022-09-19T06:33:35;98353.91;;;7.64;90.12
36502;BME280;25393;46.108;3.390;2022-09-19T06:36:03;98351.72;;;7.59;89.96
36502;BME280;25393;46.108;3.390;2022-09-19T06:38:30;98365.13;;;7.75;90.34
36502;BME280;25393;46.108;3.390;2022-09-19T06:40:58;98376.22;;;7.88;90.01
36502;BME280;25393;46.108;3.390;2022-09-19T06:43:25;98373.84;;;7.95;89.63
36502;BME280;25393;46.108;3.390;2022-09-19T06:45:52;98337.09;;;7.74;90.17
36502;BME280;25393;46.108;3.390;2022-09-19T06:48:19;98373.09;;;8.02;90.53
36502;BME280;25393;46.108;3.390;2022-09-19T06:50:47;98375.53;;;8.23;91.21
36502;BME280;25393;46.108;3.390;2022-09-19T06:53:15;98379.28;;;8.30;91.05
36502;BME280;25393;46.108;3.390;2022-09-19T06:55:43;98373.41;;;8.36;91.03
36502;BME280;25393;46.108;3.390;2022-09-19T06:58:13;98373.41;;;8.36;91.04
36502;BME280;25393;46.108;3.390;2022-09-19T07:00:41;98378.41;;;8.39;91.69
36502;BME280;25393;46.108;3.390;2022-09-19T07:03:14;98378.88;;;8.52;91.58
36502;BME280;25393;46.108;3.390;2022-09-19T07:05:43;98374.66;;;8.60;91.49
36502;BME280;25393;46.108;3.390;2022-09-19T07:08:11;98372.28;;;8.84;91.10
36502;BME280;25393;46.108;3.390;2022-09-19T07:10:41;98379.66;;;9.08;89.12
36502;BME280;25393;46.108;3.390;2022-09-19T07:13:10;98364.88;;;9.23;87.69
36502;BME280;25393;46.108;3.390;2022-09-19T07:15:41;98373.84;;;9.47;87.33
36502;BME280;25393;46.108;3.390;2022-09-19T07:18:09;98379.81;;;9.67;87.00
36502;BME280;25393;46.108;3.390;2022-09-19T07:20:37;98366.53;;;9.85;84.15
36502;BME280;25393;46.108;3.390;2022-09-19T07:23:15;98385.66;;;10.04;84.06
36502;BME280;25393;46.108;3.390;2022-09-19T07:25:43;98385.03;;;10.36;85.12
36502;BME280;25393;46.108;3.390;2022-09-19T07:28:12;98378.84;;;10.70;82.42
36502;BME280;25393;46.108;3.390;2022-09-19T07:30:40;98385.88;;;11.03;79.76
36502;BME280;25393;46.108;3.390;2022-09-19T07:33:08;98384.25;;;11.26;78.74
36502;BME280;25393;46.108;3.390;2022-09-19T07:35:36;98393.91;;;11.68;79.11
36502;BME280;25393;46.108;3.390;2022-09-19T07:38:04;98394.53;;;12.10;76.69
36502;BME280;25393;46.108;3.390;2022-09-19T07:40:35;98389.56;;;12.46;74.92
36502;BME280;25393;46.108;3.390;2022-09-19T07:43:04;98386.91;;;12.85;72.54
36502;BME280;25393;46.108;3.390;2022-09-19T07:45:35;98382.41;;;13.16;71.22
36502;BME280;25393;46.108;3.390;2022-09-19T07:48:03;98384.13;;;13.55;69.66
36502;BME280;25393;46.108;3.390;2022-09-19T07:50:31;98362.41;;;13.80;68.05
36502;BME280;25393;46.108;3.390;2022-09-19T07:53:04;98381.38;;;14.29;65.97
36502;BME280;25393;46.108;3.390;2022-09-19T07:55:31;98368.16;;;14.50;64.19
36502;BME280;25393;46.108;3.390;2022-09-19T07:57:59;98372.63;;;14.79;63.33
36502;BME280;25393;46.108;3.390;2022-09-19T08:00:40;98353.00;;;15.02;62.47
36502;BME280;25393;46.108;3.390;2022-09-19T08:03:11;98367.09;;;15.38;59.68
36502;BME280;25393;46.108;3.390;2022-09-19T08:05:40;98364.44;;;15.59;59.92
36502;BME280;25393;46.108;3.390;2022-09-19T08:08:09;98383.25;;;15.93;58.57
36502;BME280;25393;46.108;3.390;2022-09-19T08:10:38;98380.13;;;16.18;57.47
36502;BME280;25393;46.108;3.390;2022-09-19T08:13:13;98384.00;;;16.49;57.55
36502;BME280;25393;46.108;3.390;2022-09-19T08:15:43;98352.25;;;16.74;56.65
36502;BME280;25393;46.108;3.390;2022-09-19T08:18:13;98371.31;;;17.19;55.45
36502;BME280;25393;46.108;3.390;2022-09-19T08:20:41;98365.81;;;17.53;53.66
36502;BME280;25393;46.108;3.390;2022-09-19T08:23:13;98380.25;;;17.98;53.11
36502;BME280;25393;46.108;3.390;2022-09-19T08:25:41;98351.38;;;18.13;52.10
36502;BME280;25393;46.108;3.390;2022-09-19T08:28:14;98373.13;;;18.69;51.33
36502;BME280;25393;46.108;3.390;2022-09-19T08:30:40;98366.38;;;19.05;50.19
36502;BME280;25393;46.108;3.390;2022-09-19T08:33:09;98373.16;;;19.52;49.91
36502;BME280;25393;46.108;3.390;2022-09-19T08:35:38;98364.25;;;20.01;48.93
36502;BME280;25393;46.108;3.390;2022-09-19T08:38:08;98365.53;;;20.41;46.11
36502;BME280;25393;46.108;3.390;2022-09-19T08:43:40;98363.81;;;21.31;44.42
36502;BME280;25393;46.108;3.390;2022-09-19T08:54:15;98365.16;;;22.39;42.52
36502;BME280;25393;46.108;3.390;2022-09-19T08:56:44;98340.25;;;22.49;41.80
36502;BME280;25393;46.108;3.390;2022-09-19T08:59:16;98365.03;;;22.58;41.10
36502;BME280;25393;46.108;3.390;2022-09-19T09:01:47;98355.88;;;22.47;41.40
36502;BME280;25393;46.108;3.390;2022-09-19T09:04:35;98358.41;;;22.77;41.39
36502;BME280;25393;46.108;3.390;2022-09-19T09:13:10;98366.00;;;24.10;40.36
36502;BME280;25393;46.108;3.390;2022-09-19T09:21:47;98364.16;;;24.87;38.11
36502;BME280;25393;46.108;3.390;2022-09-19T09:24:22;98356.50;;;25.06;37.63
36502;BME280;25393;46.108;3.390;2022-09-19T09:27:01;98371.91;;;25.00;38.32
36502;BME280;25393;46.108;3.390;2022-09-19T09:29:37;98365.53;;;25.11;38.47
36502;BME280;25393;46.108;3.390;2022-09-19T09:35:25;98376.84;;;23.20;37.23
36502;BME280;25393;46.108;3.390;2022-09-19T09:40:46;98365.34;;;23.13;41.25
36502;BME280;25393;46.108;3.390;2022-09-19T09:44:09;98360.97;;;23.52;39.31
36502;BME280;25393;46.108;3.390;2022-09-19T09:47:03;98356.22;;;23.30;39.45
36502;BME280;25393;46.108;3.390;2022-09-19T09:49:32;98354.50;;;23.86;39.83
36502;BME280;25393;46.108;3.390;2022-09-19T09:52:28;98355.09;;;24.05;37.82
36502;BME280;25393;46.108;3.390;2022-09-19T09:55:42;98354.59;;;24.08;42.52
36502;BME280;25393;46.108;3.390;2022-09-19T09:58:22;98352.19;;;24.45;39.44
36502;BME280;25393;46.108;3.390;2022-09-19T10:04:14;98345.00;;;25.74;35.97
36502;BME280;25393;46.108;3.390;2022-09-19T10:06:51;98352.88;;;25.44;34.09
36502;BME280;25393;46.108;3.390;2022-09-19T10:09:26;98354.25;;;24.98;36.67
36502;BME280;25393;46.108;3.390;2022-09-19T10:12:04;98350.28;;;25.32;35.44
36502;BME280;25393;46.108;3.390;2022-09-19T10:15:00;98355.09;;;25.25;35.47
36502;BME280;25393;46.108;3.390;2022-09-19T10:17:36;98354.25;;;24.98;36.50
36502;BME280;25393;46.108;3.390;2022-09-19T10:20:10;98333.56;;;24.92;35.53
36502;BME280;25393;46.108;3.390;2022-09-19T10:22:42;98344.31;;;24.43;35.93
36502;BME280;25393;46.108;3.390;2022-09-19T10:25:13;98340.31;;;24.89;36.63
36502;BME280;25393;46.108;3.390;2022-09-19T10:27:41;98339.03;;;25.72;35.10
36502;BME280;25393;46.108;3.390;2022-09-19T10:30:17;98336.88;;;26.48;34.32
36502;BME280;25393;46.108;3.390;2022-09-19T10:32:48;98333.03;;;26.39;33.26
36502;BME280;25393;46.108;3.390;2022-09-19T10:35:32;98337.53;;;26.23;34.15
36502;BME280;25393;46.108;3.390;2022-09-19T10:40:28;98340.41;;;26.11;33.32
36502;BME280;25393;46.108;3.390;2022-09-19T10:42:55;98326.03;;;26.53;32.73
36502;BME280;25393;46.108;3.390;2022-09-19T10:45:26;98330.00;;;25.98;32.16
36502;BME280;25393;46.108;3.390;2022-09-19T10:47:58;98339.78;;;25.14;35.26
36502;BME280;25393;46.108;3.390;2022-09-19T10:50:27;98316.13;;;25.58;34.81
36502;BME280;25393;46.108;3.390;2022-09-19T10:53:04;98333.22;;;26.32;34.50
36502;BME280;25393;46.108;3.390;2022-09-19T10:55:36;98324.84;;;26.91;33.21
36502;BME280;25393;46.108;3.390;2022-09-19T10:58:10;98329.91;;;27.69;33.14
36502;BME280;25393;46.108;3.390;2022-09-19T11:00:59;98333.03;;;27.06;30.92
36502;BME280;25393;46.108;3.390;2022-09-19T11:03:35;98337.44;;;27.12;32.75
36502;BME280;25393;46.108;3.390;2022-09-19T11:06:14;98327.97;;;27.29;32.51
36502;BME280;25393;46.108;3.390;2022-09-19T11:08:46;98327.75;;;27.66;30.61
36502;BME280;25393;46.108;3.390;2022-09-19T11:11:32;98339.19;;;28.09;30.65
36502;BME280;25393;46.108;3.390;2022-09-19T11:14:20;98332.03;;;28.43;31.13
36502;BME280;25393;46.108;3.390;2022-09-19T11:25:23;98328.53;;;28.22;30.45
36502;BME280;25393;46.108;3.390;2022-09-19T11:31:03;98335.09;;;27.81;30.83
36502;BME280;25393;46.108;3.390;2022-09-19T11:33:50;98338.09;;;28.00;29.73
36502;BME280;25393;46.108;3.390;2022-09-19T11:37:18;98332.63;;;28.30;31.35
36502;BME280;25393;46.108;3.390;2022-09-19T11:42:49;98332.63;;;28.15;30.00
36502;BME280;25393;46.108;3.390;2022-09-19T11:45:22;98327.72;;;28.27;30.30
36502;BME280;25393;46.108;3.390;2022-09-19T11:50:53;98326.03;;;28.56;29.14
36502;BME280;25393;46.108;3.390;2022-09-19T11:56:28;98318.97;;;28.45;30.82
36502;BME280;25393;46.108;3.390;2022-09-19T12:01:58;98318.75;;;27.71;29.49
36502;BME280;25393;46.108;3.390;2022-09-19T12:08:05;98301.72;;;28.70;29.34
36502;BME280;25393;46.108;3.390;2022-09-19T12:10:41;98310.44;;;28.72;29.71
36502;BME280;25393;46.108;3.390;2022-09-19T12:13:18;98296.69;;;28.97;28.62
36502;BME280;25393;46.108;3.390;2022-09-19T12:15:53;98308.72;;;28.91;28.48
36502;BME280;25393;46.108;3.390;2022-09-19T12:18:30;98300.38;;;28.62;29.16
36502;BME280;25393;46.108;3.390;2022-09-19T12:21:03;98286.16;;;28.65;29.63
36502;BME280;25393;46.108;3.390;2022-09-19T12:23:47;98304.47;;;28.60;29.59
36502;BME280;25393;46.108;3.390;2022-09-19T12:26:54;98300.66;;;28.56;30.54
36502;BME280;25393;46.108;3.390;2022-09-19T12:29:33;98286.75;;;29.16;29.26
36502;BME280;25393;46.108;3.390;2022-09-19T12:32:09;98294.75;;;29.47;28.23
36502;BME280;25393;46.108;3.390;2022-09-19T12:35:02;98301.69;;;29.34;28.41
36502;BME280;25393;46.108;3.390;2022-09-19T12:40:28;98300.16;;;29.13;27.05
36502;BME280;25393;46.108;3.390;2022-09-19T12:46:26;98291.84;;;28.84;30.34
36502;BME280;25393;46.108;3.390;2022-09-19T12:51:46;98303.88;;;28.78;29.95
36502;BME280;25393;46.108;3.390;2022-09-19T12:54:20;98292.13;;;29.32;28.82
36502;BME280;25393;46.108;3.390;2022-09-19T12:56:57;98288.22;;;29.43;28.79
36502;BME280;25393;46.108;3.390;2022-09-19T12:59:29;98290.38;;;29.46;28.07
36502;BME280;25393;46.108;3.390;2022-09-19T13:04:38;98293.69;;;28.19;30.46
36502;BME280;25393;46.108;3.390;2022-09-19T13:07:19;98281.88;;;28.44;30.30
36502;BME280;25393;46.108;3.390;2022-09-19T13:12:29;98291.56;;;27.76;30.66
36502;BME280;25393;46.108;3.390;2022-09-19T13:15:02;98291.81;;;27.64;31.46
36502;BME280;25393;46.108;3.390;2022-09-19T13:17:34;98289.34;;;27.53;31.72
36502;BME280;25393;46.108;3.390;2022-09-19T13:20:22;98289.91;;;27.65;31.56
36502;BME280;25393;46.108;3.390;2022-09-19T13:23:22;98294.47;;;27.29;32.45
36502;BME280;25393;46.108;3.390;2022-09-19T13:28:52;98283.09;;;27.62;32.38
36502;BME280;25393;46.108;3.390;2022-09-19T13:33:53;98289.47;;;26.86;31.92
36502;BME280;25393;46.108;3.390;2022-09-19T13:38:55;98282.19;;;25.28;35.63
36502;BME280;25393;46.108;3.390;2022-09-19T13:49:18;98283.03;;;25.98;33.59
36502;BME280;25393;46.108;3.390;2022-09-19T13:51:59;98286.50;;;26.92;32.49
36502;BME280;25393;46.108;3.390;2022-09-19T13:54:35;98265.91;;;27.42;30.54
36502;BME280;25393;46.108;3.390;2022-09-19T13:57:12;98272.47;;;27.86;30.24
36502;BME280;25393;46.108;3.390;2022-09-19T14:04:41;98246.25;;;28.31;29.49
36502;BME280;25393;46.108;3.390;2022-09-19T14:10:47;98257.53;;;28.73;28.80
36502;BME280;25393;46.108;3.390;2022-09-19T14:13:32;98265.72;;;28.73;28.28
36502;BME280;25393;46.108;3.390;2022-09-19T14:18:49;98272.09;;;26.87;30.59
36502;BME280;25393;46.108;3.390;2022-09-19T14:23:59;98262.38;;;27.76;30.75
36502;BME280;25393;46.108;3.390;2022-09-19T14:26:43;98256.88;;;28.27;29.06
36502;BME280;25393;46.108;3.390;2022-09-19T14:29:46;98250.59;;;28.32;29.67
36502;BME280;25393;46.108;3.390;2022-09-19T14:35:34;98260.97;;;28.24;27.75
36502;BME280;25393;46.108;3.390;2022-09-19T14:41:04;98260.59;;;28.51;29.04
36502;BME280;25393;46.108;3.390;2022-09-19T14:46:27;98220.38;;;28.28;27.78
36502;BME280;25393;46.108;3.390;2022-09-19T14:49:11;98239.75;;;28.16;28.03
36502;BME280;25393;46.108;3.390;2022-09-19T14:52:34;98249.56;;;28.02;29.71
36502;BME280;25393;46.108;3.390;2022-09-19T14:54:58;98251.50;;;27.97;30.26
36502;BME280;25393;46.108;3.390;2022-09-19T14:57:26;98235.97;;;27.16;29.28
36502;BME280;25393;46.108;3.390;2022-09-19T14:59:53;98244.25;;;26.64;30.67
36502;BME280;25393;46.108;3.390;2022-09-19T15:02:25;98259.97;;;26.47;30.36
36502;BME280;25393;46.108;3.390;2022-09-19T15:07:38;98255.09;;;26.02;31.18
36502;BME280;25393;46.108;3.390;2022-09-19T15:13:08;98247.69;;;26.40;30.31
36502;BME280;25393;46.108;3.390;2022-09-19T15:15:38;98269.63;;;25.81;30.62
36502;BME280;25393;46.108;3.390;2022-09-19T15:18:44;98261.25;;;24.97;31.51
36502;BME280;25393;46.108;3.390;2022-09-19T15:21:15;98265.19;;;24.41;32.22
36502;BME280;25393;46.108;3.390;2022-09-19T15:23:45;98259.47;;;23.99;33.61
36502;BME280;25393;46.108;3.390;2022-09-19T15:26:18;98261.38;;;23.49;33.90
36502;BME280;25393;46.108;3.390;2022-09-19T15:29:03;98276.97;;;23.13;36.20
36502;BME280;25393;46.108;3.390;2022-09-19T15:31:32;98261.78;;;22.96;35.82
36502;BME280;25393;46.108;3.390;2022-09-19T15:34:02;98270.63;;;23.36;38.36
36502;BME280;25393;46.108;3.390;2022-09-19T15:36:32;98262.28;;;23.71;37.52
36502;BME280;25393;46.108;3.390;2022-09-19T15:39:01;98259.22;;;23.84;36.06
36502;BME280;25393;46.108;3.390;2022-09-19T15:41:29;98267.13;;;23.69;34.61
36502;BME280;25393;46.108;3.390;2022-09-19T15:43:57;98248.72;;;23.04;35.17
36502;BME280;25393;46.108;3.390;2022-09-19T15:49:01;98271.06;;;22.60;36.31
36502;BME280;25393;46.108;3.390;2022-09-19T15:51:38;98271.13;;;22.48;35.86
36502;BME280;25393;46.108;3.390;2022-09-19T15:54:19;98277.16;;;22.15;36.76
36502;BME280;25393;46.108;3.390;2022-09-19T15:56:55;98277.75;;;21.71;37.24
36502;BME280;25393;46.108;3.390;2022-09-19T15:59:31;98255.28;;;21.24;37.71
36502;BME280;25393;46.108;3.390;2022-09-19T16:02:02;98267.50;;;21.08;37.97
36502;BME280;25393;46.108;3.390;2022-09-19T16:04:45;98247.25;;;20.76;38.35
36502;BME280;25393;46.108;3.390;2022-09-19T16:07:24;98274.69;;;20.84;39.24
36502;BME280;25393;46.108;3.390;2022-09-19T16:10:19;98282.78;;;20.84;39.39
36502;BME280;25393;46.108;3.390;2022-09-19T16:13:38;98287.97;;;20.68;39.93
36502;BME280;25393;46.108;3.390;2022-09-19T16:16:26;98278.59;;;20.40;39.98
36502;BME280;25393;46.108;3.390;2022-09-19T16:18:56;98263.91;;;20.18;39.77